Time,TemperatureF,DewpointF,PressureIn,WindDirection,WindDirectionDegrees,WindSpeedMPH,WindSpeedGustMPH,Humidity,HourlyPrecipIn,Conditions,Clouds,dailyrainin,SoftwareType,DateUTC
2013-01-26 00:08:00,30.2,27.9,29.92,West,270,0.0,-999.0,91,-99.99,,,0.00,Acu-Link.com,2013-01-26 05:08:00,
2013-01-26 00:24:00,28.4,26.1,29.92,NNW,337,0.0,-999.0,91,-99.99,,,0.00,Acu-Link.com,2013-01-26 05:24:00,
2013-01-26 00:39:00,28.4,26.4,29.92,WSW,247,0.0,-999.0,92,-99.99,,,0.00,Acu-Link.com,2013-01-26 05:39:00,
2013-01-26 00:54:00,30.2,28.2,29.91,West,270,0.0,-999.0,92,-99.99,,,0.00,Acu-Link.com,2013-01-26 05:54:00,
2013-01-26 01:10:00,30.2,29.7,29.91,NNW,337,0.0,-999.0,98,-99.99,,,0.00,Acu-Link.com,2013-01-26 06:10:00,
2013-01-26 01:25:00,30.2,29.7,29.91,NNW,337,2.0,-999.0,98,-99.99,,,0.00,Acu-Link.com,2013-01-26 06:25:00,
2013-01-26 01:40:00,30.2,29.7,29.91,NNE,22,2.0,-999.0,98,-99.99,,,0.00,Acu-Link.com,2013-01-26 06:40:00,
2013-01-26 01:55:00,30.2,29.7,29.92,NNW,337,2.7,-999.0,98,-99.99,,,0.00,Acu-Link.com,2013-01-26 06:55:00,
2013-01-26 02:11:00,30.2,29.7,29.91,NNW,337,0.0,-999.0,98,-99.99,,,0.00,Acu-Link.com,2013-01-26 07:11:00,
2013-01-26 02:26:00,30.2,29.7,29.92,WNW,292,1.1,-999.0,98,-99.99,,,0.00,Acu-Link.com,2013-01-26 07:26:00,
2013-01-26 02:41:00,30.2,29.7,29.92,WNW,292,1.1,-999.0,98,-99.99,,,0.00,Acu-Link.com,2013-01-26 07:41:00,
2013-01-26 02:57:00,30.2,29.7,29.91,WNW,292,0.0,-999.0,98,-99.99,,,0.00,Acu-Link.com,2013-01-26 07:57:00,
2013-01-26 03:12:00,30.2,29.7,29.91,NW,315,1.6,-999.0,98,-99.99,,,0.00,Acu-Link.com,2013-01-26 08:12:00,
2013-01-26 03:27:00,30.2,29.7,29.92,West,270,1.1,-999.0,98,-99.99,,,0.00,Acu-Link.com,2013-01-26 08:27:00,
2013-01-26 03:43:00,30.2,29.7,29.92,WSW,247,0.0,-999.0,98,-99.99,,,0.00,Acu-Link.com,2013-01-26 08:43:00,
2013-01-26 03:58:00,30.2,29.7,29.92,West,270,1.6,-999.0,98,-99.99,,,0.00,Acu-Link.com,2013-01-26 08:58:00,
2013-01-26 04:16:00,30.2,29.7,29.91,NW,315,2.0,-999.0,98,-99.99,,,0.00,Acu-Link.com,2013-01-26 09:16:00,
2013-01-26 04:32:00,30.2,29.7,29.92,ESE,112,0.0,-999.0,98,-99.99,,,0.00,Acu-Link.com,2013-01-26 09:32:00,
2013-01-26 04:47:00,30.2,29.7,29.92,NNE,22,2.0,-999.0,98,-99.99,,,0.00,Acu-Link.com,2013-01-26 09:47:00,
2013-01-26 05:02:00,30.2,29.7,29.92,South,180,0.0,-999.0,98,-99.99,,,0.00,Acu-Link.com,2013-01-26 10:02:00,
2013-01-26 05:17:00,30.2,29.7,29.92,NE,45,0.0,-999.0,98,-99.99,,,0.00,Acu-Link.com,2013-01-26 10:17:00,
2013-01-26 05:32:00,30.2,29.7,29.92,East,90,0.0,-999.0,98,-99.99,,,0.00,Acu-Link.com,2013-01-26 10:32:00,
2013-01-26 05:48:00,30.2,29.7,29.93,West,270,0.0,-999.0,98,-99.99,,,0.00,Acu-Link.com,2013-01-26 10:48:00,
2013-01-26 06:03:00,30.2,29.7,29.93,WNW,292,0.0,-999.0,98,-99.99,,,0.00,Acu-Link.com,2013-01-26 11:03:00,
2013-01-26 06:18:00,28.4,27.9,29.93,West,270,0.0,-999.0,98,-99.99,,,0.00,Acu-Link.com,2013-01-26 11:18:00,
2013-01-26 06:34:00,28.4,27.9,29.94,North,0,0.0,-999.0,98,-99.99,,,0.00,Acu-Link.com,2013-01-26 11:34:00,
2013-01-26 06:49:00,28.4,27.9,29.94,North,0,0.0,-999.0,98,-99.99,,,0.00,Acu-Link.com,2013-01-26 11:49:00,
2013-01-26 07:04:00,28.4,27.9,29.94,WSW,247,0.0,-999.0,98,-99.99,,,0.00,Acu-Link.com,2013-01-26 12:04:00,
2013-01-26 07:19:00,28.4,27.9,29.96,NNW,337,0.0,-999.0,98,-99.99,,,0.00,Acu-Link.com,2013-01-26 12:19:00,
2013-01-26 07:35:00,28.4,27.9,29.96,East,90,0.0,-999.0,98,-99.99,,,0.00,Acu-Link.com,2013-01-26 12:35:00,
2013-01-26 07:50:00,28.4,27.9,29.97,ENE,67,2.0,-999.0,98,-99.99,,,0.00,Acu-Link.com,2013-01-26 12:50:00,
2013-01-26 08:05:00,28.4,27.9,29.97,South,180,1.6,-999.0,98,-99.99,,,0.00,Acu-Link.com,2013-01-26 13:05:00,
2013-01-26 08:21:00,28.4,27.9,29.98,NW,315,0.0,-999.0,98,-99.99,,,0.00,Acu-Link.com,2013-01-26 13:21:00,
2013-01-26 08:36:00,30.2,29.7,29.99,NE,45,2.7,-999.0,98,-99.99,,,0.00,Acu-Link.com,2013-01-26 13:36:00,
2013-01-26 08:51:00,30.2,29.7,29.99,NE,45,0.0,-999.0,98,-99.99,,,0.00,Acu-Link.com,2013-01-26 13:51:00,
2013-01-26 09:07:00,30.2,29.7,29.98,NNW,337,3.1,-999.0,98,-99.99,,,0.00,Acu-Link.com,2013-01-26 14:07:00,
2013-01-26 09:22:00,30.2,29.7,29.99,NNE,22,3.1,-999.0,98,-99.99,,,0.00,Acu-Link.com,2013-01-26 14:22:00,
2013-01-26 09:37:00,32.0,31.5,30.00,NNW,337,2.0,-999.0,98,-99.99,,,0.00,Acu-Link.com,2013-01-26 14:37:00,
2013-01-26 09:52:00,32.0,31.5,30.01,ENE,67,0.0,-999.0,98,-99.99,,,0.00,Acu-Link.com,2013-01-26 14:52:00,
2013-01-26 10:08:00,32.0,31.5,30.02,SW,225,1.6,-999.0,98,-99.99,,,0.00,Acu-Link.com,2013-01-26 15:08:00,
2013-01-26 10:23:00,33.8,33.3,30.04,WNW,292,1.6,-999.0,98,-99.99,,,0.00,Acu-Link.com,2013-01-26 15:23:00,
2013-01-26 10:38:00,35.6,35.1,30.03,East,90,2.0,-999.0,98,-99.99,,,0.00,Acu-Link.com,2013-01-26 15:38:00,
2013-01-26 10:54:00,37.4,35.0,30.04,East,90,0.0,-999.0,91,-99.99,,,0.01,Acu-Link.com,2013-01-26 15:54:00,
2013-01-26 11:09:00,39.2,36.2,30.04,West,270,0.0,-999.0,89,-99.99,,,0.02,Acu-Link.com,2013-01-26 16:09:00,
2013-01-26 11:24:00,41.0,36.8,30.04,SSW,202,2.0,-999.0,85,-99.99,,,0.04,Acu-Link.com,2013-01-26 16:24:00,
2013-01-26 11:40:00,41.0,36.2,30.05,ENE,67,1.1,-999.0,83,-99.99,,,0.05,Acu-Link.com,2013-01-26 16:40:00,
2013-01-26 11:55:00,42.8,37.1,30.04,SSE,157,0.0,-999.0,80,-99.99,,,0.07,Acu-Link.com,2013-01-26 16:55:00,
2013-01-26 12:10:00,42.8,35.8,30.04,South,180,2.0,-999.0,76,-99.99,,,0.08,Acu-Link.com,2013-01-26 17:10:00,
2013-01-26 12:25:00,44.6,37.5,30.03,South,180,4.0,-999.0,76,-99.99,,,0.08,Acu-Link.com,2013-01-26 17:25:00,
2013-01-26 12:41:00,44.6,37.2,30.03,SSE,157,1.6,-999.0,75,-99.99,,,0.08,Acu-Link.com,2013-01-26 17:41:00,
2013-01-26 12:56:00,44.6,35.8,30.03,NNE,22,2.0,-999.0,71,-99.99,,,0.08,Acu-Link.com,2013-01-26 17:56:00,
2013-01-26 13:11:00,50.0,38.7,30.04,ESE,112,3.1,-999.0,65,-99.99,,,0.08,Acu-Link.com,2013-01-26 18:11:00,
2013-01-26 13:27:00,50.0,36.2,30.02,North,0,1.1,-999.0,59,-99.99,,,0.08,Acu-Link.com,2013-01-26 18:27:00,
2013-01-26 13:42:00,50.0,36.2,30.02,SSE,157,1.1,-999.0,59,-99.99,,,0.08,Acu-Link.com,2013-01-26 18:42:00,
2013-01-26 13:57:00,53.6,36.9,30.02,East,90,5.6,-999.0,53,-99.99,,,0.08,Acu-Link.com,2013-01-26 18:57:00,
2013-01-26 14:13:00,51.8,34.3,30.02,NE,45,2.7,-999.0,51,-99.99,,,0.08,Acu-Link.com,2013-01-26 19:13:00,
2013-01-26 14:28:00,53.6,33.9,30.01,SE,135,4.7,-999.0,47,-99.99,,,0.08,Acu-Link.com,2013-01-26 19:28:00,
2013-01-26 14:43:00,51.8,32.2,30.01,SSE,157,3.6,-999.0,47,-99.99,,,0.08,Acu-Link.com,2013-01-26 19:43:00,
2013-01-26 14:58:00,53.6,32.2,30.01,SSE,157,2.7,-999.0,44,-99.99,,,0.08,Acu-Link.com,2013-01-26 19:58:00,
2013-01-26 15:14:00,53.6,33.9,30.01,SE,135,4.0,-999.0,47,-99.99,,,0.08,Acu-Link.com,2013-01-26 20:14:00,
2013-01-26 15:29:00,53.6,31.7,30.01,SSE,157,2.0,-999.0,43,-99.99,,,0.08,Acu-Link.com,2013-01-26 20:29:00,
2013-01-26 15:44:00,55.4,30.9,30.01,SSE,157,2.7,-999.0,39,-99.99,,,0.08,Acu-Link.com,2013-01-26 20:44:00,
2013-01-26 15:59:00,55.4,31.5,30.02,South,180,3.6,-999.0,40,-99.99,,,0.08,Acu-Link.com,2013-01-26 20:59:00,
2013-01-26 16:15:00,53.6,29.9,30.02,NE,45,1.6,-999.0,40,-99.99,,,0.08,Acu-Link.com,2013-01-26 21:15:00,
2013-01-26 16:30:00,53.6,29.9,30.02,SE,135,3.6,-999.0,40,-99.99,,,0.08,Acu-Link.com,2013-01-26 21:30:00,
2013-01-26 16:45:00,53.6,29.3,95.24,South,180,0.0,-999.0,39,-99.99,,,0.08,Acu-Link.com,2013-01-26 21:45:00,
2013-01-26 17:01:00,53.6,30.5,30.02,SE,135,1.6,-999.0,41,-99.99,,,0.08,Acu-Link.com,2013-01-26 22:01:00,
2013-01-26 17:16:00,53.6,29.9,30.02,SE,135,3.6,-999.0,40,-99.99,,,0.08,Acu-Link.com,2013-01-26 22:16:00,
2013-01-26 17:31:00,53.6,29.3,30.02,SE,135,2.0,-999.0,39,-99.99,,,0.08,Acu-Link.com,2013-01-26 22:31:00,
2013-01-26 17:46:00,51.8,29.4,30.03,East,90,1.1,-999.0,42,-99.99,,,0.08,Acu-Link.com,2013-01-26 22:46:00,
2013-01-26 18:02:00,50.0,30.0,30.03,NE,45,1.6,-999.0,46,-99.99,,,0.08,Acu-Link.com,2013-01-26 23:02:00,
2013-01-26 18:17:00,46.4,28.3,30.04,NNE,22,0.0,-999.0,49,-99.99,,,0.08,Acu-Link.com,2013-01-26 23:17:00,
2013-01-26 18:32:00,46.4,29.3,30.05,NE,45,2.0,-999.0,51,-99.99,,,0.08,Acu-Link.com,2013-01-26 23:32:00,
2013-01-26 18:48:00,44.6,28.5,30.05,NNE,22,2.7,-999.0,53,-99.99,,,0.08,Acu-Link.com,2013-01-26 23:48:00,
2013-01-26 19:03:00,44.6,29.4,30.05,NNE,22,2.0,-999.0,55,-99.99,,,0.08,Acu-Link.com,2013-01-27 00:03:00,
2013-01-26 19:18:00,44.6,30.3,30.06,NNE,22,2.7,-999.0,57,-99.99,,,0.08,Acu-Link.com,2013-01-27 00:18:00,
2013-01-26 19:34:00,42.8,29.9,30.07,North,0,2.0,-999.0,60,-99.99,,,0.08,Acu-Link.com,2013-01-27 00:34:00,
2013-01-26 19:49:00,41.0,29.4,30.07,SSE,157,4.0,-999.0,63,-99.99,,,0.08,Acu-Link.com,2013-01-27 00:49:00,
2013-01-26 20:04:00,41.0,29.0,30.08,NE,45,1.6,-999.0,62,-99.99,,,0.08,Acu-Link.com,2013-01-27 01:04:00,
2013-01-26 20:19:00,41.0,29.0,30.08,ESE,112,2.0,-999.0,62,-99.99,,,0.08,Acu-Link.com,2013-01-27 01:19:00,
2013-01-26 20:35:00,41.0,29.4,30.08,SSE,157,2.0,-999.0,63,-99.99,,,0.08,Acu-Link.com,2013-01-27 01:35:00,
2013-01-26 20:50:00,41.0,29.8,30.09,NNE,22,0.0,-999.0,64,-99.99,,,0.08,Acu-Link.com,2013-01-27 01:50:00,
2013-01-26 21:05:00,39.2,28.4,30.09,NNW,337,0.0,-999.0,65,-99.99,,,0.08,Acu-Link.com,2013-01-27 02:05:00,
2013-01-26 21:21:00,37.4,28.2,30.09,West,270,0.0,-999.0,69,-99.99,,,0.08,Acu-Link.com,2013-01-27 02:21:00,
2013-01-26 21:36:00,35.6,27.8,30.10,NW,315,0.0,-999.0,73,-99.99,,,0.08,Acu-Link.com,2013-01-27 02:36:00,
2013-01-26 21:51:00,35.6,27.8,30.11,NW,315,0.0,-999.0,73,-99.99,,,0.08,Acu-Link.com,2013-01-27 02:51:00,
2013-01-26 22:07:00,35.6,28.1,30.11,West,270,0.0,-999.0,74,-99.99,,,0.08,Acu-Link.com,2013-01-27 03:07:00,
2013-01-26 22:22:00,35.6,28.5,30.11,East,90,0.0,-999.0,75,-99.99,,,0.08,Acu-Link.com,2013-01-27 03:22:00,
2013-01-26 22:37:00,33.8,27.1,30.12,NW,315,0.0,-999.0,76,-99.99,,,0.08,Acu-Link.com,2013-01-27 03:37:00,
2013-01-26 22:52:00,33.8,27.7,30.13,NW,315,0.0,-999.0,78,-99.99,,,0.08,Acu-Link.com,2013-01-27 03:52:00,
2013-01-26 23:08:00,33.8,28.0,30.13,North,0,0.0,-999.0,79,-99.99,,,0.08,Acu-Link.com,2013-01-27 04:08:00,
2013-01-26 23:23:00,33.8,27.7,30.14,NNW,337,0.0,-999.0,78,-99.99,,,0.08,Acu-Link.com,2013-01-27 04:23:00,
2013-01-26 23:38:00,35.6,26.8,30.14,NNE,22,2.7,-999.0,70,-99.99,,,0.08,Acu-Link.com,2013-01-27 04:38:00,
2013-01-26 23:54:00,37.4,27.1,30.14,ENE,67,2.7,-999.0,66,-99.99,,,0.08,Acu-Link.com,2013-01-27 04:54:00,